sensor_id;sensor_type;location;lat;lon;timestamp;P1;durP1;ratioP1;P2;durP2;ratioP2
14748;SDS011;7466;53.574;9.976;2023-07-16T00:02:02;3.33;;;2.80;;
14748;SDS011;7466;53.574;9.976;2023-07-16T00:04:29;4.87;;;2.67;;
14748;SDS011;7466;53.574;9.976;2023-07-16T00:06:56;3.17;;;2.70;;
14748;SDS011;7466;53.574;9.976;2023-07-16T00:09:23;3.97;;;2.83;;
14748;SDS011;7466;53.574;9.976;2023-07-16T00:11:51;4.37;;;2.77;;
14748;SDS011;7466;53.574;9.976;2023-07-16T00:14:18;3.47;;;2.60;;
14748;SDS011;7466;53.574;9.976;2023-07-16T00:16:45;6.20;;;2.80;;
14748;SDS011;7466;53.574;9.976;2023-07-16T00:19:12;3.87;;;2.80;;
14748;SDS011;7466;53.574;9.976;2023-07-16T00:21:40;2.57;;;2.37;;
14748;SDS011;7466;53.574;9.976;2023-07-16T00:24:07;4.13;;;2.70;;
14748;SDS011;7466;53.574;9.976;2023-07-16T00:26:35;3.40;;;2.70;;
14748;SDS011;7466;53.574;9.976;2023-07-16T00:29:03;3.27;;;2.70;;
14748;SDS011;7466;53.574;9.976;2023-07-16T00:31:30;3.63;;;2.70;;
14748;SDS011;7466;53.574;9.976;2023-07-16T00:33:57;4.43;;;2.90;;
14748;SDS011;7466;53.574;9.976;2023-07-16T00:36:24;3.40;;;2.73;;
14748;SDS011;7466;53.574;9.976;2023-07-16T00:38:51;3.73;;;2.80;;
14748;SDS011;7466;53.574;9.976;2023-07-16T00:41:17;3.43;;;2.53;;
14748;SDS011;7466;53.574;9.976;2023-07-16T00:43:44;3.30;;;2.80;;
14748;SDS011;7466;53.574;9.976;2023-07-16T00:46:12;3.23;;;2.70;;
14748;SDS011;7466;53.574;9.976;2023-07-16T00:48:39;3.20;;;2.90;;
14748;SDS011;7466;53.574;9.976;2023-07-16T00:51:07;5.10;;;3.03;;
14748;SDS011;7466;53.574;9.976;2023-07-16T00:53:35;4.73;;;3.67;;
14748;SDS011;7466;53.574;9.976;2023-07-16T00:56:02;3.60;;;3.20;;
14748;SDS011;7466;53.574;9.976;2023-07-16T00:58:29;3.10;;;2.80;;
14748;SDS011;7466;53.574;9.976;2023-07-16T01:00:56;4.53;;;2.73;;
14748;SDS011;7466;53.574;9.976;2023-07-16T01:03:24;3.00;;;2.77;;
14748;SDS011;7466;53.574;9.976;2023-07-16T01:05:54;7.13;;;3.20;;
14748;SDS011;7466;53.574;9.976;2023-07-16T01:08:27;3.57;;;3.00;;
14748;SDS011;7466;53.574;9.976;2023-07-16T01:10:59;3.57;;;3.10;;
14748;SDS011;7466;53.574;9.976;2023-07-16T01:13:27;4.17;;;3.60;;
14748;SDS011;7466;53.574;9.976;2023-07-16T01:15:55;7.07;;;3.80;;
14748;SDS011;7466;53.574;9.976;2023-07-16T01:18:21;4.70;;;3.17;;
14748;SDS011;7466;53.574;9.976;2023-07-16T01:20:49;3.80;;;3.40;;
14748;SDS011;7466;53.574;9.976;2023-07-16T01:23:24;4.53;;;3.33;;
14748;SDS011;7466;53.574;9.976;2023-07-16T01:26:14;4.73;;;2.87;;
14748;SDS011;7466;53.574;9.976;2023-07-16T01:29:09;3.97;;;3.00;;
14748;SDS011;7466;53.574;9.976;2023-07-16T01:31:44;3.50;;;2.73;;
14748;SDS011;7466;53.574;9.976;2023-07-16T01:34:12;4.13;;;2.50;;
14748;SDS011;7466;53.574;9.976;2023-07-16T01:36:40;5.10;;;2.67;;
14748;SDS011;7466;53.574;9.976;2023-07-16T01:39:08;4.57;;;2.83;;
14748;SDS011;7466;53.574;9.976;2023-07-16T01:41:35;4.17;;;3.20;;
14748;SDS011;7466;53.574;9.976;2023-07-16T01:44:01;3.17;;;2.87;;
14748;SDS011;7466;53.574;9.976;2023-07-16T01:46:30;5.60;;;2.87;;
14748;SDS011;7466;53.574;9.976;2023-07-16T01:48:57;3.53;;;3.00;;
14748;SDS011;7466;53.574;9.976;2023-07-16T01:51:23;4.07;;;3.27;;
14748;SDS011;7466;53.574;9.976;2023-07-16T01:53:50;4.67;;;3.50;;
14748;SDS011;7466;53.574;9.976;2023-07-16T01:56:17;3.70;;;3.13;;
14748;SDS011;7466;53.574;9.976;2023-07-16T01:58:44;3.47;;;3.10;;
14748;SDS011;7466;53.574;9.976;2023-07-16T02:01:10;3.40;;;3.10;;
14748;SDS011;7466;53.574;9.976;2023-07-16T02:03:39;5.03;;;3.33;;
14748;SDS011;7466;53.574;9.976;2023-07-16T02:06:05;4.73;;;3.40;;
14748;SDS011;7466;53.574;9.976;2023-07-16T02:08:32;4.90;;;3.00;;
14748;SDS011;7466;53.574;9.976;2023-07-16T02:10:59;4.23;;;2.60;;
14748;SDS011;7466;53.574;9.976;2023-07-16T02:13:27;7.07;;;2.77;;
14748;SDS011;7466;53.574;9.976;2023-07-16T02:15:53;3.03;;;2.43;;
14748;SDS011;7466;53.574;9.976;2023-07-16T02:18:20;4.50;;;2.63;;
14748;SDS011;7466;53.574;9.976;2023-07-16T02:20:48;3.03;;;2.60;;
14748;SDS011;7466;53.574;9.976;2023-07-16T02:23:15;3.27;;;2.43;;
14748;SDS011;7466;53.574;9.976;2023-07-16T02:25:42;3.60;;;2.60;;
14748;SDS011;7466;53.574;9.976;2023-07-16T02:28:09;4.20;;;2.63;;
14748;SDS011;7466;53.574;9.976;2023-07-16T02:30:35;5.30;;;2.83;;
14748;SDS011;7466;53.574;9.976;2023-07-16T02:33:02;3.33;;;3.00;;
14748;SDS011;7466;53.574;9.976;2023-07-16T02:35:29;3.07;;;2.50;;
14748;SDS011;7466;53.574;9.976;2023-07-16T02:37:57;4.03;;;2.60;;
14748;SDS011;7466;53.574;9.976;2023-07-16T02:40:24;3.00;;;2.53;;
14748;SDS011;7466;53.574;9.976;2023-07-16T02:42:50;3.60;;;2.20;;
14748;SDS011;7466;53.574;9.976;2023-07-16T02:45:17;2.70;;;2.40;;
14748;SDS011;7466;53.574;9.976;2023-07-16T02:47:44;3.77;;;2.10;;
14748;SDS011;7466;53.574;9.976;2023-07-16T02:50:11;5.30;;;2.50;;
14748;SDS011;7466;53.574;9.976;2023-07-16T02:52:38;5.50;;;2.23;;
14748;SDS011;7466;53.574;9.976;2023-07-16T02:55:07;2.93;;;2.33;;
14748;SDS011;7466;53.574;9.976;2023-07-16T02:57:34;3.07;;;2.20;;
14748;SDS011;7466;53.574;9.976;2023-07-16T03:00:00;4.70;;;2.30;;
14748;SDS011;7466;53.574;9.976;2023-07-16T03:02:27;3.93;;;2.20;;
14748;SDS011;7466;53.574;9.976;2023-07-16T03:04:54;4.10;;;2.53;;
14748;SDS011;7466;53.574;9.976;2023-07-16T03:07:21;6.53;;;2.93;;
14748;SDS011;7466;53.574;9.976;2023-07-16T03:09:48;6.47;;;2.53;;
14748;SDS011;7466;53.574;9.976;2023-07-16T03:12:16;3.43;;;2.43;;
14748;SDS011;7466;53.574;9.976;2023-07-16T03:14:43;3.40;;;2.43;;
14748;SDS011;7466;53.574;9.976;2023-07-16T03:17:10;3.53;;;2.43;;
14748;SDS011;7466;53.574;9.976;2023-07-16T03:19:37;4.37;;;2.63;;
14748;SDS011;7466;53.574;9.976;2023-07-16T03:22:04;2.53;;;2.30;;
14748;SDS011;7466;53.574;9.976;2023-07-16T03:24:31;3.77;;;2.43;;
14748;SDS011;7466;53.574;9.976;2023-07-16T03:26:58;3.57;;;2.70;;
14748;SDS011;7466;53.574;9.976;2023-07-16T03:29:26;3.60;;;2.23;;
14748;SDS011;7466;53.574;9.976;2023-07-16T03:31:53;3.53;;;2.40;;
14748;SDS011;7466;53.574;9.976;2023-07-16T03:34:20;3.73;;;2.50;;
14748;SDS011;7466;53.574;9.976;2023-07-16T03:36:48;3.77;;;2.80;;
14748;SDS011;7466;53.574;9.976;2023-07-16T03:39:15;3.37;;;2.80;;
14748;SDS011;7466;53.574;9.976;2023-07-16T03:41:42;5.60;;;2.73;;
14748;SDS011;7466;53.574;9.976;2023-07-16T03:44:09;5.80;;;2.90;;
14748;SDS011;7466;53.574;9.976;2023-07-16T03:46:38;4.13;;;2.67;;
14748;SDS011;7466;53.574;9.976;2023-07-16T03:49:06;3.67;;;2.67;;
14748;SDS011;7466;53.574;9.976;2023-07-16T03:51:33;2.60;;;2.40;;
14748;SDS011;7466;53.574;9.976;2023-07-16T03:54:00;5.63;;;2.70;;
14748;SDS011;7466;53.574;9.976;2023-07-16T03:56:27;4.30;;;2.93;;
14748;SDS011;7466;53.574;9.976;2023-07-16T03:58:53;5.07;;;2.63;;
14748;SDS011;7466;53.574;9.976;2023-07-16T04:01:20;4.17;;;2.57;;
14748;SDS011;7466;53.574;9.976;2023-07-16T04:03:50;4.47;;;2.93;;
14748;SDS011;7466;53.574;9.976;2023-07-16T04:06:17;5.63;;;2.80;;
14748;SDS011;7466;53.574;9.976;2023-07-16T04:08:44;5.67;;;2.87;;
14748;SDS011;7466;53.574;9.976;2023-07-16T04:11:11;4.67;;;2.43;;
14748;SDS011;7466;53.574;9.976;2023-07-16T04:13:37;3.40;;;2.50;;
14748;SDS011;7466;53.574;9.976;2023-07-16T04:16:04;3.37;;;2.57;;
14748;SDS011;7466;53.574;9.976;2023-07-16T04:18:31;5.17;;;2.67;;
14748;SDS011;7466;53.574;9.976;2023-07-16T04:20:59;3.57;;;2.53;;
14748;SDS011;7466;53.574;9.976;2023-07-16T04:23:26;5.50;;;2.83;;
14748;SDS011;7466;53.574;9.976;2023-07-16T04:25:53;5.60;;;2.83;;
14748;SDS011;7466;53.574;9.976;2023-07-16T04:28:21;5.20;;;2.50;;
14748;SDS011;7466;53.574;9.976;2023-07-16T04:30:48;5.67;;;2.90;;
14748;SDS011;7466;53.574;9.976;2023-07-16T04:33:15;5.90;;;2.90;;
14748;SDS011;7466;53.574;9.976;2023-07-16T04:35:44;2.90;;;2.53;;
14748;SDS011;7466;53.574;9.976;2023-07-16T04:38:12;2.93;;;2.63;;
14748;SDS011;7466;53.574;9.976;2023-07-16T04:40:39;4.07;;;2.83;;
14748;SDS011;7466;53.574;9.976;2023-07-16T04:43:07;6.40;;;2.70;;
14748;SDS011;7466;53.574;9.976;2023-07-16T04:45:34;3.80;;;2.90;;
14748;SDS011;7466;53.574;9.976;2023-07-16T04:48:00;2.90;;;2.57;;
14748;SDS011;7466;53.574;9.976;2023-07-16T04:50:27;4.57;;;3.33;;
14748;SDS011;7466;53.574;9.976;2023-07-16T04:52:54;5.27;;;2.60;;
14748;SDS011;7466;53.574;9.976;2023-07-16T04:55:22;6.80;;;2.97;;
14748;SDS011;7466;53.574;9.976;2023-07-16T04:57:49;3.90;;;2.83;;
14748;SDS011;7466;53.574;9.976;2023-07-16T05:00:18;4.93;;;2.70;;
14748;SDS011;7466;53.574;9.976;2023-07-16T05:02:45;4.27;;;2.90;;
14748;SDS011;7466;53.574;9.976;2023-07-16T05:05:12;5.00;;;2.87;;
14748;SDS011;7466;53.574;9.976;2023-07-16T05:07:39;3.07;;;2.43;;
14748;SDS011;7466;53.574;9.976;2023-07-16T05:10:06;3.63;;;2.63;;
14748;SDS011;7466;53.574;9.976;2023-07-16T05:12:35;3.17;;;2.33;;
14748;SDS011;7466;53.574;9.976;2023-07-16T05:15:02;3.67;;;2.60;;
14748;SDS011;7466;53.574;9.976;2023-07-16T05:17:29;3.63;;;2.50;;
14748;SDS011;7466;53.574;9.976;2023-07-16T05:19:55;3.70;;;2.53;;
14748;SDS011;7466;53.574;9.976;2023-07-16T05:22:22;5.33;;;2.60;;
14748;SDS011;7466;53.574;9.976;2023-07-16T05:24:49;5.10;;;2.47;;
14748;SDS011;7466;53.574;9.976;2023-07-16T05:27:16;5.67;;;2.47;;
14748;SDS011;7466;53.574;9.976;2023-07-16T05:29:45;4.97;;;2.43;;
14748;SDS011;7466;53.574;9.976;2023-07-16T05:32:12;3.63;;;2.70;;
14748;SDS011;7466;53.574;9.976;2023-07-16T05:34:39;4.30;;;2.50;;
14748;SDS011;7466;53.574;9.976;2023-07-16T05:37:06;5.53;;;2.67;;
14748;SDS011;7466;53.574;9.976;2023-07-16T05:39:33;4.20;;;2.53;;
14748;SDS011;7466;53.574;9.976;2023-07-16T05:42:00;3.53;;;2.43;;
14748;SDS011;7466;53.574;9.976;2023-07-16T05:44:27;6.03;;;2.20;;
14748;SDS011;7466;53.574;9.976;2023-07-16T05:46:56;4.57;;;2.37;;
14748;SDS011;7466;53.574;9.976;2023-07-16T05:49:23;5.97;;;2.60;;
14748;SDS011;7466;53.574;9.976;2023-07-16T05:51:50;4.17;;;2.40;;
14748;SDS011;7466;53.574;9.976;2023-07-16T05:54:17;6.13;;;2.77;;
14748;SDS011;7466;53.574;9.976;2023-07-16T05:56:44;3.43;;;2.10;;
14748;SDS011;7466;53.574;9.976;2023-07-16T05:59:11;4.57;;;2.30;;
14748;SDS011;7466;53.574;9.976;2023-07-16T06:01:38;4.20;;;2.20;;
14748;SDS011;7466;53.574;9.976;2023-07-16T06:04:06;2.90;;;2.20;;
14748;SDS011;7466;53.574;9.976;2023-07-16T06:06:33;3.67;;;2.57;;
14748;SDS011;7466;53.574;9.976;2023-07-16T06:09:00;4.30;;;2.70;;
14748;SDS011;7466;53.574;9.976;2023-07-16T06:11:27;5.10;;;2.60;;
14748;SDS011;7466;53.574;9.976;2023-07-16T06:13:54;5.53;;;2.73;;
14748;SDS011;7466;53.574;9.976;2023-07-16T06:16:20;3.53;;;2.50;;
14748;SDS011;7466;53.574;9.976;2023-07-16T06:18:47;5.77;;;2.87;;
14748;SDS011;7466;53.574;9.976;2023-07-16T06:21:15;4.97;;;2.80;;
14748;SDS011;7466;53.574;9.976;2023-07-16T06:23:42;3.70;;;2.87;;
14748;SDS011;7466;53.574;9.976;2023-07-16T06:26:09;4.60;;;2.60;;
14748;SDS011;7466;53.574;9.976;2023-07-16T06:28:36;5.57;;;2.60;;
14748;SDS011;7466;53.574;9.976;2023-07-16T06:31:03;8.20;;;2.80;;
14748;SDS011;7466;53.574;9.976;2023-07-16T06:33:29;8.00;;;2.50;;
14748;SDS011;7466;53.574;9.976;2023-07-16T06:35:56;8.30;;;3.00;;
14748;SDS011;7466;53.574;9.976;2023-07-16T06:38:24;3.60;;;2.60;;
14748;SDS011;7466;53.574;9.976;2023-07-16T06:40:51;4.97;;;3.20;;
14748;SDS011;7466;53.574;9.976;2023-07-16T06:43:18;4.03;;;2.57;;
14748;SDS011;7466;53.574;9.976;2023-07-16T06:45:45;5.47;;;3.17;;
14748;SDS011;7466;53.574;9.976;2023-07-16T06:48:15;6.33;;;3.43;;
14748;SDS011;7466;53.574;9.976;2023-07-16T06:50:45;5.43;;;3.57;;
14748;SDS011;7466;53.574;9.976;2023-07-16T06:53:15;9.03;;;3.30;;
14748;SDS011;7466;53.574;9.976;2023-07-16T06:55:43;5.43;;;3.00;;
14748;SDS011;7466;53.574;9.976;2023-07-16T06:58:10;6.00;;;3.10;;
14748;SDS011;7466;53.574;9.976;2023-07-16T07:00:37;4.37;;;3.10;;
14748;SDS011;7466;53.574;9.976;2023-07-16T07:03:04;7.00;;;3.37;;
14748;SDS011;7466;53.574;9.976;2023-07-16T07:05:31;4.73;;;3.30;;
14748;SDS011;7466;53.574;9.976;2023-07-16T07:08:01;4.97;;;3.30;;
14748;SDS011;7466;53.574;9.976;2023-07-16T07:10:27;5.93;;;3.27;;
14748;SDS011;7466;53.574;9.976;2023-07-16T07:12:56;5.17;;;3.23;;
14748;SDS011;7466;53.574;9.976;2023-07-16T07:15:22;7.73;;;3.53;;
14748;SDS011;7466;53.574;9.976;2023-07-16T07:17:49;6.90;;;3.40;;
14748;SDS011;7466;53.574;9.976;2023-07-16T07:20:17;5.90;;;3.30;;
14748;SDS011;7466;53.574;9.976;2023-07-16T07:22:44;8.13;;;3.60;;
14748;SDS011;7466;53.574;9.976;2023-07-16T07:25:11;6.00;;;3.80;;
14748;SDS011;7466;53.574;9.976;2023-07-16T07:27:38;4.47;;;3.10;;
14748;SDS011;7466;53.574;9.976;2023-07-16T07:30:07;6.20;;;3.33;;
14748;SDS011;7466;53.574;9.976;2023-07-16T07:32:36;7.90;;;3.40;;
14748;SDS011;7466;53.574;9.976;2023-07-16T07:35:03;6.60;;;3.70;;
14748;SDS011;7466;53.574;9.976;2023-07-16T07:37:30;4.70;;;3.37;;
14748;SDS011;7466;53.574;9.976;2023-07-16T07:39:58;6.07;;;3.30;;
14748;SDS011;7466;53.574;9.976;2023-07-16T07:42:25;8.07;;;3.30;;
14748;SDS011;7466;53.574;9.976;2023-07-16T07:44:53;6.15;;;3.15;;
14748;SDS011;7466;53.574;9.976;2023-07-16T07:47:21;5.35;;;3.13;;
14748;SDS011;7466;53.574;9.976;2023-07-16T07:49:48;7.20;;;3.40;;
14748;SDS011;7466;53.574;9.976;2023-07-16T07:52:15;6.55;;;2.90;;
14748;SDS011;7466;53.574;9.976;2023-07-16T07:54:41;6.27;;;3.13;;
14748;SDS011;7466;53.574;9.976;2023-07-16T07:57:08;5.63;;;3.10;;
14748;SDS011;7466;53.574;9.976;2023-07-16T07:59:35;6.43;;;3.00;;
14748;SDS011;7466;53.574;9.976;2023-07-16T08:02:02;9.03;;;2.83;;
14748;SDS011;7466;53.574;9.976;2023-07-16T08:04:30;7.07;;;3.60;;
14748;SDS011;7466;53.574;9.976;2023-07-16T08:06:57;9.50;;;4.07;;
14748;SDS011;7466;53.574;9.976;2023-07-16T08:09:25;8.27;;;3.47;;
14748;SDS011;7466;53.574;9.976;2023-07-16T08:11:52;9.13;;;3.30;;
14748;SDS011;7466;53.574;9.976;2023-07-16T08:14:19;7.13;;;2.87;;
14748;SDS011;7466;53.574;9.976;2023-07-16T08:16:46;9.63;;;3.37;;
14748;SDS011;7466;53.574;9.976;2023-07-16T08:19:12;4.77;;;2.90;;
14748;SDS011;7466;53.574;9.976;2023-07-16T08:21:41;4.67;;;2.80;;
14748;SDS011;7466;53.574;9.976;2023-07-16T08:24:08;5.87;;;3.33;;
14748;SDS011;7466;53.574;9.976;2023-07-16T08:26:34;4.10;;;2.80;;
14748;SDS011;7466;53.574;9.976;2023-07-16T08:29:01;6.83;;;2.60;;
14748;SDS011;7466;53.574;9.976;2023-07-16T08:31:28;6.43;;;3.00;;
14748;SDS011;7466;53.574;9.976;2023-07-16T08:33:55;5.23;;;2.90;;
14748;SDS011;7466;53.574;9.976;2023-07-16T08:36:22;4.93;;;2.70;;
14748;SDS011;7466;53.574;9.976;2023-07-16T08:38:50;7.03;;;2.70;;
14748;SDS011;7466;53.574;9.976;2023-07-16T08:41:17;4.37;;;2.97;;
14748;SDS011;7466;53.574;9.976;2023-07-16T08:43:45;6.07;;;2.75;;
14748;SDS011;7466;53.574;9.976;2023-07-16T08:46:13;5.28;;;2.70;;
14748;SDS011;7466;53.574;9.976;2023-07-16T08:48:41;5.97;;;2.83;;
14748;SDS011;7466;53.574;9.976;2023-07-16T08:51:08;3.75;;;2.78;;
14748;SDS011;7466;53.574;9.976;2023-07-16T08:53:37;3.57;;;2.70;;
14748;SDS011;7466;53.574;9.976;2023-07-16T08:56:05;4.05;;;2.60;;
14748;SDS011;7466;53.574;9.976;2023-07-16T08:58:32;5.82;;;3.10;;
14748;SDS011;7466;53.574;9.976;2023-07-16T09:00:59;5.88;;;3.50;;
14748;SDS011;7466;53.574;9.976;2023-07-16T09:03:27;6.57;;;3.55;;
14748;SDS011;7466;53.574;9.976;2023-07-16T09:05:54;3.45;;;3.10;;
14748;SDS011;7466;53.574;9.976;2023-07-16T09:08:21;3.70;;;3.40;;
14748;SDS011;7466;53.574;9.976;2023-07-16T09:10:53;6.80;;;3.60;;
14748;SDS011;7466;53.574;9.976;2023-07-16T09:13:22;4.23;;;3.83;;
14748;SDS011;7466;53.574;9.976;2023-07-16T09:15:52;8.53;;;4.30;;
14748;SDS011;7466;53.574;9.976;2023-07-16T09:18:19;5.60;;;3.67;;
14748;SDS011;7466;53.574;9.976;2023-07-16T09:20:47;7.77;;;4.30;;
14748;SDS011;7466;53.574;9.976;2023-07-16T09:23:16;7.03;;;4.32;;
14748;SDS011;7466;53.574;9.976;2023-07-16T09:25:43;7.10;;;4.15;;
14748;SDS011;7466;53.574;9.976;2023-07-16T09:28:10;6.28;;;3.97;;
14748;SDS011;7466;53.574;9.976;2023-07-16T09:30:38;5.43;;;4.00;;
14748;SDS011;7466;53.574;9.976;2023-07-16T09:33:12;4.40;;;4.07;;
14748;SDS011;7466;53.574;9.976;2023-07-16T09:35:40;6.53;;;3.97;;
14748;SDS011;7466;53.574;9.976;2023-07-16T09:38:07;5.28;;;3.67;;
14748;SDS011;7466;53.574;9.976;2023-07-16T09:40:35;6.80;;;3.95;;
14748;SDS011;7466;53.574;9.976;2023-07-16T09:43:02;6.65;;;4.00;;
14748;SDS011;7466;53.574;9.976;2023-07-16T09:45:29;4.35;;;3.70;;
14748;SDS011;7466;53.574;9.976;2023-07-16T09:47:58;6.50;;;4.28;;
14748;SDS011;7466;53.574;9.976;2023-07-16T09:50:25;7.05;;;3.63;;
14748;SDS011;7466;53.574;9.976;2023-07-16T09:52:55;9.02;;;4.63;;
14748;SDS011;7466;53.574;9.976;2023-07-16T09:55:23;5.65;;;4.40;;
14748;SDS011;7466;53.574;9.976;2023-07-16T09:57:51;4.72;;;4.30;;
14748;SDS011;7466;53.574;9.976;2023-07-16T10:00:19;5.75;;;4.50;;
14748;SDS011;7466;53.574;9.976;2023-07-16T10:02:49;7.35;;;4.60;;
14748;SDS011;7466;53.574;9.976;2023-07-16T10:05:18;5.47;;;4.30;;
14748;SDS011;7466;53.574;9.976;2023-07-16T10:07:50;6.10;;;4.25;;
14748;SDS011;7466;53.574;9.976;2023-07-16T10:10:18;6.80;;;4.77;;
14748;SDS011;7466;53.574;9.976;2023-07-16T10:12:54;8.57;;;4.78;;
14748;SDS011;7466;53.574;9.976;2023-07-16T10:15:24;7.93;;;4.57;;
14748;SDS011;7466;53.574;9.976;2023-07-16T10:17:52;7.72;;;4.30;;
14748;SDS011;7466;53.574;9.976;2023-07-16T10:20:28;4.70;;;4.18;;
14748;SDS011;7466;53.574;9.976;2023-07-16T10:22:56;6.05;;;3.67;;
14748;SDS011;7466;53.574;9.976;2023-07-16T10:25:23;5.25;;;4.20;;
14748;SDS011;7466;53.574;9.976;2023-07-16T10:27:52;6.38;;;4.25;;
14748;SDS011;7466;53.574;9.976;2023-07-16T10:30:19;5.68;;;4.32;;
14748;SDS011;7466;53.574;9.976;2023-07-16T10:32:46;5.55;;;4.40;;
14748;SDS011;7466;53.574;9.976;2023-07-16T10:35:13;7.25;;;3.92;;
14748;SDS011;7466;53.574;9.976;2023-07-16T10:37:42;6.35;;;4.38;;
14748;SDS011;7466;53.574;9.976;2023-07-16T10:40:09;4.75;;;4.10;;
14748;SDS011;7466;53.574;9.976;2023-07-16T10:42:39;5.85;;;4.03;;
14748;SDS011;7466;53.574;9.976;2023-07-16T10:45:07;4.60;;;3.58;;
14748;SDS011;7466;53.574;9.976;2023-07-16T10:47:35;7.30;;;4.18;;
14748;SDS011;7466;53.574;9.976;2023-07-16T10:50:04;4.35;;;3.88;;
14748;SDS011;7466;53.574;9.976;2023-07-16T10:52:32;8.15;;;4.22;;
14748;SDS011;7466;53.574;9.976;2023-07-16T10:55:01;8.93;;;4.60;;
14748;SDS011;7466;53.574;9.976;2023-07-16T10:57:28;4.78;;;4.28;;
14748;SDS011;7466;53.574;9.976;2023-07-16T10:59:57;6.13;;;4.15;;
14748;SDS011;7466;53.574;9.976;2023-07-16T11:02:25;5.13;;;4.05;;
14748;SDS011;7466;53.574;9.976;2023-07-16T11:04:53;4.63;;;4.22;;
14748;SDS011;7466;53.574;9.976;2023-07-16T11:07:22;4.82;;;4.30;;
14748;SDS011;7466;53.574;9.976;2023-07-16T11:09:50;6.18;;;4.43;;
14748;SDS011;7466;53.574;9.976;2023-07-16T11:12:20;4.95;;;4.45;;
14748;SDS011;7466;53.574;9.976;2023-07-16T11:14:49;5.03;;;4.40;;
14748;SDS011;7466;53.574;9.976;2023-07-16T11:17:17;6.75;;;4.75;;
14748;SDS011;7466;53.574;9.976;2023-07-16T11:19:44;6.22;;;4.20;;
14748;SDS011;7466;53.574;9.976;2023-07-16T11:22:12;5.15;;;4.38;;
14748;SDS011;7466;53.574;9.976;2023-07-16T11:24:43;10.43;;;4.38;;
14748;SDS011;7466;53.574;9.976;2023-07-16T11:27:15;6.60;;;4.47;;
14748;SDS011;7466;53.574;9.976;2023-07-16T11:29:48;7.75;;;3.88;;
14748;SDS011;7466;53.574;9.976;2023-07-16T11:32:25;4.88;;;3.83;;
14748;SDS011;7466;53.574;9.976;2023-07-16T11:34:53;5.63;;;3.63;;
14748;SDS011;7466;53.574;9.976;2023-07-16T11:37:20;4.18;;;3.70;;
14748;SDS011;7466;53.574;9.976;2023-07-16T11:39:48;6.40;;;3.90;;
14748;SDS011;7466;53.574;9.976;2023-07-16T11:42:17;11.15;;;3.75;;
14748;SDS011;7466;53.574;9.976;2023-07-16T11:44:50;5.20;;;3.60;;
14748;SDS011;7466;53.574;9.976;2023-07-16T11:47:17;4.00;;;3.45;;
14748;SDS011;7466;53.574;9.976;2023-07-16T11:49:44;5.78;;;3.88;;
14748;SDS011;7466;53.574;9.976;2023-07-16T11:52:11;4.15;;;3.80;;
14748;SDS011;7466;53.574;9.976;2023-07-16T11:54:38;3.92;;;3.55;;
14748;SDS011;7466;53.574;9.976;2023-07-16T11:57:05;4.63;;;3.83;;
14748;SDS011;7466;53.574;9.976;2023-07-16T11:59:32;4.70;;;3.42;;
14748;SDS011;7466;53.574;9.976;2023-07-16T12:02:00;7.53;;;3.92;;
14748;SDS011;7466;53.574;9.976;2023-07-16T12:04:28;5.95;;;3.90;;
14748;SDS011;7466;53.574;9.976;2023-07-16T12:06:55;5.32;;;3.65;;
14748;SDS011;7466;53.574;9.976;2023-07-16T12:09:21;6.05;;;4.18;;
14748;SDS011;7466;53.574;9.976;2023-07-16T12:11:48;6.03;;;3.75;;
14748;SDS011;7466;53.574;9.976;2023-07-16T12:14:15;4.90;;;4.13;;
14748;SDS011;7466;53.574;9.976;2023-07-16T12:16:42;5.85;;;3.83;;
14748;SDS011;7466;53.574;9.976;2023-07-16T12:19:10;5.63;;;3.78;;
14748;SDS011;7466;53.574;9.976;2023-07-16T12:21:37;5.22;;;3.83;;
14748;SDS011;7466;53.574;9.976;2023-07-16T12:24:04;3.65;;;3.15;;
14748;SDS011;7466;53.574;9.976;2023-07-16T12:26:31;4.05;;;3.60;;
14748;SDS011;7466;53.574;9.976;2023-07-16T12:28:59;6.20;;;3.85;;
14748;SDS011;7466;53.574;9.976;2023-07-16T12:31:27;5.13;;;3.40;;
14748;SDS011;7466;53.574;9.976;2023-07-16T12:33:54;4.55;;;3.00;;
14748;SDS011;7466;53.574;9.976;2023-07-16T12:36:22;5.05;;;3.53;;
14748;SDS011;7466;53.574;9.976;2023-07-16T12:38:49;5.57;;;3.60;;
14748;SDS011;7466;53.574;9.976;2023-07-16T12:41:16;3.65;;;3.35;;
14748;SDS011;7466;53.574;9.976;2023-07-16T12:43:45;3.90;;;3.50;;
14748;SDS011;7466;53.574;9.976;2023-07-16T12:46:12;5.10;;;3.58;;
14748;SDS011;7466;53.574;9.976;2023-07-16T12:48:39;6.50;;;3.63;;
14748;SDS011;7466;53.574;9.976;2023-07-16T12:51:06;6.82;;;3.83;;
14748;SDS011;7466;53.574;9.976;2023-07-16T12:53:34;5.07;;;3.58;;
14748;SDS011;7466;53.574;9.976;2023-07-16T12:56:01;5.05;;;3.40;;
14748;SDS011;7466;53.574;9.976;2023-07-16T12:58:28;3.50;;;3.17;;
14748;SDS011;7466;53.574;9.976;2023-07-16T13:00:55;6.35;;;3.47;;
14748;SDS011;7466;53.574;9.976;2023-07-16T13:03:22;3.83;;;3.10;;
14748;SDS011;7466;53.574;9.976;2023-07-16T13:05:49;6.47;;;3.00;;
14748;SDS011;7466;53.574;9.976;2023-07-16T13:08:16;4.65;;;3.00;;
14748;SDS011;7466;53.574;9.976;2023-07-16T13:10:44;6.60;;;3.13;;
14748;SDS011;7466;53.574;9.976;2023-07-16T13:13:11;4.68;;;3.00;;
14748;SDS011;7466;53.574;9.976;2023-07-16T13:15:38;4.38;;;2.88;;
14748;SDS011;7466;53.574;9.976;2023-07-16T13:18:04;5.63;;;2.80;;
14748;SDS011;7466;53.574;9.976;2023-07-16T13:20:31;6.85;;;3.10;;
14748;SDS011;7466;53.574;9.976;2023-07-16T13:22:58;4.97;;;3.17;;
14748;SDS011;7466;53.574;9.976;2023-07-16T13:25:25;5.07;;;2.83;;
14748;SDS011;7466;53.574;9.976;2023-07-16T13:27:55;5.95;;;2.97;;
14748;SDS011;7466;53.574;9.976;2023-07-16T13:30:24;5.78;;;3.40;;
14748;SDS011;7466;53.574;9.976;2023-07-16T13:32:52;4.78;;;4.03;;
14748;SDS011;7466;53.574;9.976;2023-07-16T13:35:21;5.72;;;4.20;;
14748;SDS011;7466;53.574;9.976;2023-07-16T13:37:47;3.90;;;3.50;;
14748;SDS011;7466;53.574;9.976;2023-07-16T13:40:15;3.53;;;3.03;;
14748;SDS011;7466;53.574;9.976;2023-07-16T13:42:45;4.38;;;3.17;;
14748;SDS011;7466;53.574;9.976;2023-07-16T13:45:13;7.43;;;3.30;;
14748;SDS011;7466;53.574;9.976;2023-07-16T13:47:40;4.53;;;3.08;;
14748;SDS011;7466;53.574;9.976;2023-07-16T13:50:07;6.07;;;2.70;;
14748;SDS011;7466;53.574;9.976;2023-07-16T13:52:34;6.13;;;3.28;;
14748;SDS011;7466;53.574;9.976;2023-07-16T13:55:01;3.08;;;2.78;;
14748;SDS011;7466;53.574;9.976;2023-07-16T13:57:29;4.93;;;3.20;;
14748;SDS011;7466;53.574;9.976;2023-07-16T13:59:56;3.30;;;2.95;;
14748;SDS011;7466;53.574;9.976;2023-07-16T14:02:24;4.90;;;3.17;;
14748;SDS011;7466;53.574;9.976;2023-07-16T14:04:51;2.88;;;2.67;;
14748;SDS011;7466;53.574;9.976;2023-07-16T14:07:18;4.07;;;3.42;;
14748;SDS011;7466;53.574;9.976;2023-07-16T14:09:45;4.13;;;3.40;;
14748;SDS011;7466;53.574;9.976;2023-07-16T14:12:12;3.75;;;2.97;;
14748;SDS011;7466;53.574;9.976;2023-07-16T14:14:39;3.67;;;3.22;;
14748;SDS011;7466;53.574;9.976;2023-07-16T14:17:05;7.30;;;3.25;;
14748;SDS011;7466;53.574;9.976;2023-07-16T14:19:34;4.97;;;3.17;;
14748;SDS011;7466;53.574;9.976;2023-07-16T14:22:01;4.00;;;3.05;;
14748;SDS011;7466;53.574;9.976;2023-07-16T14:24:29;3.95;;;3.38;;
14748;SDS011;7466;53.574;9.976;2023-07-16T14:26:57;5.07;;;3.13;;
14748;SDS011;7466;53.574;9.976;2023-07-16T14:29:25;7.88;;;3.42;;
14748;SDS011;7466;53.574;9.976;2023-07-16T14:31:54;3.80;;;3.38;;
14748;SDS011;7466;53.574;9.976;2023-07-16T14:34:21;4.13;;;3.25;;
14748;SDS011;7466;53.574;9.976;2023-07-16T14:36:50;4.70;;;3.85;;
14748;SDS011;7466;53.574;9.976;2023-07-16T14:39:16;4.53;;;3.03;;
14748;SDS011;7466;53.574;9.976;2023-07-16T14:41:43;4.43;;;3.30;;
14748;SDS011;7466;53.574;9.976;2023-07-16T14:44:10;3.83;;;3.42;;
14748;SDS011;7466;53.574;9.976;2023-07-16T14:46:37;4.47;;;3.33;;
14748;SDS011;7466;53.574;9.976;2023-07-16T14:49:04;5.50;;;3.08;;
14748;SDS011;7466;53.574;9.976;2023-07-16T14:51:31;5.18;;;3.20;;
14748;SDS011;7466;53.574;9.976;2023-07-16T14:54:05;3.47;;;3.17;;
14748;SDS011;7466;53.574;9.976;2023-07-16T14:56:32;3.40;;;3.03;;
14748;SDS011;7466;53.574;9.976;2023-07-16T14:58:59;3.40;;;3.10;;
14748;SDS011;7466;53.574;9.976;2023-07-16T15:01:26;4.85;;;3.15;;
14748;SDS011;7466;53.574;9.976;2023-07-16T15:03:53;4.38;;;3.22;;